Time;durP1;ratioP1;P1;durP2;ratioP2;P2;SDS_P1;SDS_P2;PMS_P1;PMS_P2;Temp;Humidity;BMP_temperature;BMP_pressure;BME280_temperature;BME280_humidity;BME280_pressure;Samples;Min_cycle;Max_cycle;Signal;HPM_P1;HPM_P2
2022/03/29 00:00:39;;;;;;;26.87;11.40;;;;;;;;;;6295026;22;20162;-85
2022/03/29 00:03:44;;;;;;;33.43;12.00;;;;;;;;;;6313725;22;20169;-85
2022/03/29 00:06:49;;;;;;;29.53;11.20;;;;;;;;;;6294004;22;20272;-85
2022/03/29 00:09:54;;;;;;;28.60;11.70;;;;;;;;;;6313068;22;20746;-86
2022/03/29 00:13:00;;;;;;;38.53;11.40;;;;;;;;;;6295332;22;20901;-84
2022/03/29 00:16:05;;;;;;;28.83;12.10;;;;;;;;;;6296077;22;20165;-85
2022/03/29 00:19:10;;;;;;;28.07;11.37;;;;;;;;;;6295209;22;20279;-85
2022/03/29 00:22:15;;;;;;;27.50;11.77;;;;;;;;;;6293564;22;20215;-84
2022/03/29 00:25:20;;;;;;;32.53;11.70;;;;;;;;;;6312659;22;20225;-85
2022/03/29 00:28:26;;;;;;;29.23;11.50;;;;;;;;;;6312988;22;20161;-85
2022/03/29 00:31:32;;;;;;;29.83;11.83;;;;;;;;;;6296973;22;20211;-84
2022/03/29 00:34:37;;;;;;;27.73;11.53;;;;;;;;;;6314752;22;20192;-85
2022/03/29 00:37:43;;;;;;;27.97;12.17;;;;;;;;;;6296667;22;20165;-85
2022/03/29 00:40:48;;;;;;;28.60;12.07;;;;;;;;;;6313858;22;20176;-85
2022/03/29 00:43:54;;;;;;;28.17;11.33;;;;;;;;;;6295902;22;20176;-85
2022/03/29 00:46:59;;;;;;;26.80;10.83;;;;;;;;;;6314492;22;20169;-85
2022/03/29 00:50:04;;;;;;;28.67;11.87;;;;;;;;;;6315803;22;20161;-83
2022/03/29 00:53:11;;;;;;;26.50;11.47;;;;;;;;;;6296808;22;20263;-84
2022/03/29 00:56:19;;;;;;;29.27;11.50;;;;;;;;;;6313822;22;20157;-85
2022/03/29 00:59:26;;;;;;;33.33;11.37;;;;;;;;;;6297968;22;20225;-84
2022/03/29 01:02:31;;;;;;;28.47;11.30;;;;;;;;;;6314848;22;20611;-84
2022/03/29 01:05:36;;;;;;;28.97;11.97;;;;;;;;;;6314761;22;20165;-85
2022/03/29 01:08:41;;;;;;;25.90;11.97;;;;;;;;;;6314962;22;20503;-84
2022/03/29 01:11:48;;;;;;;28.80;12.03;;;;;;;;;;6296275;22;20165;-85
2022/03/29 01:14:54;;;;;;;30.73;11.73;;;;;;;;;;6314819;22;20165;-85
2022/03/29 01:17:59;;;;;;;32.13;12.13;;;;;;;;;;6296569;22;20227;-85
2022/03/29 01:21:06;;;;;;;27.53;12.07;;;;;;;;;;6296005;22;20165;-85
2022/03/29 01:24:13;;;;;;;29.03;11.40;;;;;;;;;;6297775;22;20258;-83
2022/03/29 01:27:18;;;;;;;29.27;12.07;;;;;;;;;;6296465;22;20165;-85
2022/03/29 01:30:24;;;;;;;30.47;11.97;;;;;;;;;;6295465;22;20173;-83
2022/03/29 01:33:29;;;;;;;28.10;11.43;;;;;;;;;;6296911;22;20188;-85
2022/03/29 01:36:35;;;;;;;25.43;11.67;;;;;;;;;;6315789;22;20165;-83
2022/03/29 01:39:40;;;;;;;27.63;11.70;;;;;;;;;;6316107;22;20169;-86
2022/03/29 01:42:48;;;;;;;29.13;11.10;;;;;;;;;;6295995;22;20165;-85
2022/03/29 01:45:54;;;;;;;26.47;11.77;;;;;;;;;;6296514;22;20165;-84
2022/03/29 01:48:59;;;;;;;28.00;11.37;;;;;;;;;;6314669;22;20680;-85
2022/03/29 01:52:05;;;;;;;24.97;11.53;;;;;;;;;;6315318;22;20183;-84
2022/03/29 01:55:12;;;;;;;29.23;12.30;;;;;;;;;;6296842;22;20516;-85
2022/03/29 01:58:18;;;;;;;32.03;12.03;;;;;;;;;;6316474;22;20164;-85
2022/03/29 02:01:23;;;;;;;32.60;11.40;;;;;;;;;;6317129;22;20164;-85
2022/03/29 02:04:28;;;;;;;29.83;12.07;;;;;;;;;;6297361;22;20169;-85
2022/03/29 02:07:33;;;;;;;27.40;11.33;;;;;;;;;;6298816;22;20149;-85
2022/03/29 02:10:40;;;;;;;29.70;12.07;;;;;;;;;;6318377;22;20165;-85
2022/03/29 02:13:45;;;;;;;26.27;12.57;;;;;;;;;;6297807;22;20197;-84
2022/03/29 02:16:49;;;;;;;29.63;12.33;;;;;;;;;;6299533;22;20172;-85
2022/03/29 02:19:54;;;;;;;29.33;12.80;;;;;;;;;;6300059;22;20230;-84
2022/03/29 02:23:03;;;;;;;27.73;12.30;;;;;;;;;;6298705;22;20287;-84
2022/03/29 02:26:09;;;;;;;29.53;12.17;;;;;;;;;;6300355;22;20168;-85
2022/03/29 02:29:14;;;;;;;30.50;12.67;;;;;;;;;;6299730;22;20172;-85
2022/03/29 02:32:20;;;;;;;32.70;12.43;;;;;;;;;;6300237;22;20191;-83
2022/03/29 02:35:25;;;;;;;31.13;12.40;;;;;;;;;;6299050;22;20207;-85
2022/03/29 02:38:30;;;;;;;32.27;12.70;;;;;;;;;;6298304;22;20609;-85
2022/03/29 02:41:36;;;;;;;28.97;11.37;;;;;;;;;;6299986;22;20149;-85
2022/03/29 02:44:42;;;;;;;25.80;10.97;;;;;;;;;;6300344;22;20168;-84
2022/03/29 02:47:47;;;;;;;32.40;12.27;;;;;;;;;;6299479;22;20161;-85
2022/03/29 02:50:52;;;;;;;30.40;12.50;;;;;;;;;;6316228;22;20247;-85
2022/03/29 02:53:57;;;;;;;29.00;12.37;;;;;;;;;;6316175;22;20287;-85
2022/03/29 02:57:04;;;;;;;27.60;12.10;;;;;;;;;;6296011;22;20169;-85
2022/03/29 03:00:09;;;;;;;31.97;12.60;;;;;;;;;;6296954;22;20149;-84
2022/03/29 03:03:14;;;;;;;30.33;12.67;;;;;;;;;;6297735;22;20184;-84
2022/03/29 03:06:19;;;;;;;32.23;11.77;;;;;;;;;;6297585;22;20268;-85
2022/03/29 03:09:24;;;;;;;35.27;13.30;;;;;;;;;;6297883;22;20585;-85
2022/03/29 03:12:35;;;;;;;30.73;11.83;;;;;;;;;;6301384;22;20230;-85
2022/03/29 03:15:40;;;;;;;35.23;13.03;;;;;;;;;;6299643;22;20157;-83
2022/03/29 03:18:45;;;;;;;33.43;13.13;;;;;;;;;;6316180;22;20798;-84
2022/03/29 03:21:51;;;;;;;32.20;12.57;;;;;;;;;;6318727;22;20225;-84
2022/03/29 03:24:56;;;;;;;33.73;13.53;;;;;;;;;;6297503;22;20169;-85
2022/03/29 03:28:02;;;;;;;27.40;12.40;;;;;;;;;;6297572;22;20161;-85
2022/03/29 03:31:07;;;;;;;28.27;13.13;;;;;;;;;;6298334;22;20239;-82
2022/03/29 03:34:12;;;;;;;28.77;12.50;;;;;;;;;;6317397;22;20192;-84
2022/03/29 03:37:17;;;;;;;35.30;13.53;;;;;;;;;;6297296;22;20161;-84
2022/03/29 03:40:22;;;;;;;33.93;13.00;;;;;;;;;;6297459;22;20177;-85
2022/03/29 03:43:28;;;;;;;36.97;13.17;;;;;;;;;;6297039;22;20177;-85
2022/03/29 03:46:34;;;;;;;33.43;13.27;;;;;;;;;;6296509;22;20177;-85
2022/03/29 03:49:40;;;;;;;35.40;13.33;;;;;;;;;;6316911;22;20165;-85
2022/03/29 03:52:45;;;;;;;37.67;13.80;;;;;;;;;;6298812;22;20235;-84
2022/03/29 03:55:50;;;;;;;32.83;13.00;;;;;;;;;;6315377;22;20494;-84
2022/03/29 03:58:56;;;;;;;32.17;12.87;;;;;;;;;;6297840;22;20578;-84
2022/03/29 04:02:03;;;;;;;28.30;13.00;;;;;;;;;;6296946;22;20165;-85
2022/03/29 04:05:12;;;;;;;33.67;13.33;;;;;;;;;;6295113;22;20231;-84
2022/03/29 04:08:17;;;;;;;35.80;12.83;;;;;;;;;;6297161;22;20164;-84
2022/03/29 04:11:23;;;;;;;33.67;13.63;;;;;;;;;;6297692;22;20165;-85
2022/03/29 04:14:29;;;;;;;34.77;12.87;;;;;;;;;;6296097;22;20212;-85
2022/03/29 04:17:35;;;;;;;30.83;12.77;;;;;;;;;;6296687;22;20173;-85
2022/03/29 04:20:40;;;;;;;32.87;13.13;;;;;;;;;;6314866;22;20318;-85
2022/03/29 04:23:45;;;;;;;40.50;14.50;;;;;;;;;;6299346;22;20169;-85
2022/03/29 04:26:51;;;;;;;34.80;13.67;;;;;;;;;;6297544;22;20189;-85
2022/03/29 04:30:01;;;;;;;31.57;13.57;;;;;;;;;;6295605;22;20609;-85
2022/03/29 04:33:06;;;;;;;34.43;13.17;;;;;;;;;;6296836;22;20209;-84
2022/03/29 04:36:10;;;;;;;35.77;14.30;;;;;;;;;;6296863;22;20292;-85
2022/03/29 04:39:15;;;;;;;33.33;13.53;;;;;;;;;;6296846;22;20260;-86
2022/03/29 04:42:20;;;;;;;34.70;12.63;;;;;;;;;;6298308;22;20150;-86
2022/03/29 04:45:27;;;;;;;36.23;14.40;;;;;;;;;;6298372;22;20299;-85
2022/03/29 04:48:32;;;;;;;33.70;13.97;;;;;;;;;;6295976;22;20225;-85
2022/03/29 04:51:37;;;;;;;29.50;12.63;;;;;;;;;;6298285;22;20169;-84
2022/03/29 04:54:42;;;;;;;30.47;12.80;;;;;;;;;;6297616;22;20258;-84
2022/03/29 04:57:48;;;;;;;31.50;12.73;;;;;;;;;;6297992;22;20169;-85
2022/03/29 05:00:54;;;;;;;32.40;12.83;;;;;;;;;;6297687;22;20275;-84
2022/03/29 05:03:59;;;;;;;29.33;12.63;;;;;;;;;;6298057;22;20172;-83
2022/03/29 05:07:04;;;;;;;34.03;13.23;;;;;;;;;;6314220;22;20235;-84
2022/03/29 05:10:10;;;;;;;39.73;14.57;;;;;;;;;;6298462;22;20154;-85
2022/03/29 05:13:17;;;;;;;32.53;12.93;;;;;;;;;;6293904;22;20188;-85
2022/03/29 05:16:25;;;;;;;32.13;12.97;;;;;;;;;;6295904;22;20152;-85
2022/03/29 05:19:30;;;;;;;35.27;13.80;;;;;;;;;;6316851;22;20505;-84
2022/03/29 05:22:34;;;;;;;38.80;14.27;;;;;;;;;;6296759;22;20160;-85
2022/03/29 05:25:39;;;;;;;35.27;13.53;;;;;;;;;;6294443;22;20169;-84
2022/03/29 05:28:44;;;;;;;32.67;13.87;;;;;;;;;;6314559;22;20162;-84
2022/03/29 05:31:50;;;;;;;38.57;13.47;;;;;;;;;;6296954;22;20165;-85
2022/03/29 05:34:55;;;;;;;37.10;14.20;;;;;;;;;;6294208;22;20188;-85
2022/03/29 05:38:01;;;;;;;38.77;13.47;;;;;;;;;;6296065;22;20215;-84
2022/03/29 05:41:06;;;;;;;35.13;13.90;;;;;;;;;;6319582;22;20168;-84
2022/03/29 05:44:11;;;;;;;33.70;12.70;;;;;;;;;;6298121;22;20545;-84
2022/03/29 05:50:42;;;;;;;39.20;13.57;;;;;;;;;;6297396;22;20173;-85
2022/03/29 05:53:47;;;;;;;34.10;13.77;;;;;;;;;;6298261;22;20192;-84
2022/03/29 05:56:54;;;;;;;30.47;12.80;;;;;;;;;;6297270;22;20694;-84
2022/03/29 05:59:59;;;;;;;34.47;14.00;;;;;;;;;;6295693;22;20161;-83
2022/03/29 06:03:05;;;;;;;29.27;12.53;;;;;;;;;;6295654;22;20179;-84
2022/03/29 06:06:13;;;;;;;34.70;13.40;;;;;;;;;;6296610;22;20183;-85
2022/03/29 06:09:18;;;;;;;32.60;13.60;;;;;;;;;;6296480;22;20284;-84
2022/03/29 06:12:24;;;;;;;30.33;13.60;;;;;;;;;;6296376;22;20607;-85
2022/03/29 06:15:28;;;;;;;33.17;11.93;;;;;;;;;;6296551;22;20311;-84
2022/03/29 06:18:35;;;;;;;34.50;12.87;;;;;;;;;;6297085;22;20169;-85
2022/03/29 06:21:40;;;;;;;31.13;11.97;;;;;;;;;;6297077;22;20205;-85
2022/03/29 06:24:46;;;;;;;29.43;12.10;;;;;;;;;;6297108;22;20236;-84
2022/03/29 06:27:50;;;;;;;31.10;12.70;;;;;;;;;;6315058;22;20209;-84
2022/03/29 06:30:56;;;;;;;30.00;12.37;;;;;;;;;;6297396;22;20166;-85
2022/03/29 06:34:03;;;;;;;30.13;11.93;;;;;;;;;;6296447;22;20640;-85
2022/03/29 06:37:11;;;;;;;35.13;12.87;;;;;;;;;;6295845;22;20593;-84
2022/03/29 06:40:16;;;;;;;30.63;12.10;;;;;;;;;;6296861;22;20196;-85
2022/03/29 06:43:21;;;;;;;33.80;12.93;;;;;;;;;;6298025;22;20161;-85
2022/03/29 06:46:26;;;;;;;36.23;12.93;;;;;;;;;;6297242;22;20240;-84
2022/03/29 06:49:32;;;;;;;31.17;13.27;;;;;;;;;;6299084;22;20651;-84
2022/03/29 06:52:37;;;;;;;29.03;12.67;;;;;;;;;;6297298;22;20175;-86
2022/03/29 06:55:42;;;;;;;34.97;13.37;;;;;;;;;;6297125;22;20256;-86
2022/03/29 06:58:51;;;;;;;31.63;12.47;;;;;;;;;;6317002;22;20165;-86
2022/03/29 07:01:56;;;;;;;35.73;12.63;;;;;;;;;;6298742;22;20173;-87
2022/03/29 07:05:02;;;;;;;34.90;12.37;;;;;;;;;;6297544;22;20169;-84
2022/03/29 07:08:10;;;;;;;29.13;12.30;;;;;;;;;;6297625;22;20304;-86
2022/03/29 07:11:17;;;;;;;31.67;13.40;;;;;;;;;;6296230;22;20183;-85
2022/03/29 07:14:22;;;;;;;33.83;12.73;;;;;;;;;;6297402;22;20213;-86
2022/03/29 07:17:31;;;;;;;27.03;12.57;;;;;;;;;;6319439;22;20160;-84
2022/03/29 07:20:38;;;;;;;25.23;12.47;;;;;;;;;;6318930;22;20161;-86
2022/03/29 07:23:43;;;;;;;34.50;12.90;;;;;;;;;;6299014;22;20169;-86
2022/03/29 07:26:51;;;;;;;29.10;13.30;;;;;;;;;;6297321;22;20161;-85
2022/03/29 07:29:57;;;;;;;27.80;12.90;;;;;;;;;;6297925;22;20145;-85
2022/03/29 07:33:01;;;;;;;35.57;14.33;;;;;;;;;;6297612;22;20192;-85
2022/03/29 07:36:08;;;;;;;30.63;12.80;;;;;;;;;;6298038;22;20165;-86
2022/03/29 07:39:13;;;;;;;35.70;13.97;;;;;;;;;;6294088;22;20169;-84
2022/03/29 07:42:18;;;;;;;30.27;13.43;;;;;;;;;;6290302;22;20359;-83
2022/03/29 07:45:23;;;;;;;39.17;14.50;;;;;;;;;;6280116;22;20208;-86
2022/03/29 07:48:28;;;;;;;33.63;13.40;;;;;;;;;;6302143;22;20209;-85
2022/03/29 07:51:35;;;;;;;27.67;13.20;;;;;;;;;;6287478;22;20215;-86
2022/03/29 07:54:40;;;;;;;38.13;14.33;;;;;;;;;;6285316;22;20197;-85
2022/03/29 07:57:45;;;;;;;30.67;13.00;;;;;;;;;;6286668;22;20165;-85
2022/03/29 08:00:51;;;;;;;31.30;14.67;;;;;;;;;;6284041;22;20192;-85
2022/03/29 08:03:56;;;;;;;38.40;13.93;;;;;;;;;;6283572;22;20223;-84
2022/03/29 08:07:03;;;;;;;41.60;14.63;;;;;;;;;;6285666;22;20165;-84
2022/03/29 08:10:09;;;;;;;37.73;14.13;;;;;;;;;;6284341;22;20347;-86
2022/03/29 08:13:15;;;;;;;34.67;13.63;;;;;;;;;;6291463;22;20172;-86
2022/03/29 08:16:22;;;;;;;34.30;14.15;;;;;;;;;;6317754;22;20492;-86
2022/03/29 08:19:27;;;;;;;36.85;14.27;;;;;;;;;;6284800;22;20169;-85
2022/03/29 08:22:35;;;;;;;31.10;13.05;;;;;;;;;;6307653;22;20157;-86
2022/03/29 08:25:42;;;;;;;36.17;13.70;;;;;;;;;;6288353;22;20197;-85
2022/03/29 08:28:47;;;;;;;34.50;14.38;;;;;;;;;;6289758;22;20168;-85
2022/03/29 08:31:53;;;;;;;34.27;14.83;;;;;;;;;;6290144;22;20453;-85
2022/03/29 08:34:58;;;;;;;38.50;14.73;;;;;;;;;;6299443;22;20446;-84
2022/03/29 08:38:05;;;;;;;29.08;13.43;;;;;;;;;;6317850;22;20168;-85
2022/03/29 08:41:10;;;;;;;36.20;15.00;;;;;;;;;;6299998;22;20491;-85
2022/03/29 08:44:15;;;;;;;34.75;13.80;;;;;;;;;;6299681;22;20226;-85
2022/03/29 08:47:20;;;;;;;31.13;14.07;;;;;;;;;;6302686;22;20169;-86
2022/03/29 08:50:27;;;;;;;38.38;14.30;;;;;;;;;;6302390;22;20184;-85
2022/03/29 08:53:33;;;;;;;36.95;14.75;;;;;;;;;;6298269;22;20185;-85
2022/03/29 08:56:39;;;;;;;36.97;13.95;;;;;;;;;;6315552;22;20152;-86
2022/03/29 08:59:44;;;;;;;34.00;14.98;;;;;;;;;;6298421;22;20177;-86
2022/03/29 09:02:49;;;;;;;32.50;14.10;;;;;;;;;;6297417;22;20165;-86
2022/03/29 09:06:06;;;;;;;38.67;18.67;;;;;;;;;;6297506;22;20172;-86
2022/03/29 09:09:21;;;;;;;34.08;15.23;;;;;;;;;;6296772;22;20165;-85
2022/03/29 09:12:26;;;;;;;34.33;14.00;;;;;;;;;;6298684;22;20165;-85
2022/03/29 09:15:38;;;;;;;32.00;15.25;;;;;;;;;;6298646;22;20189;-86
2022/03/29 09:18:55;;;;;;;31.35;14.55;;;;;;;;;;6317515;22;20165;-85
2022/03/29 09:22:02;;;;;;;34.35;15.18;;;;;;;;;;6316380;22;20165;-85
2022/03/29 09:25:08;;;;;;;30.08;14.13;;;;;;;;;;6315002;22;20191;-85
2022/03/29 09:28:14;;;;;;;32.72;15.73;;;;;;;;;;6297131;22;20237;-85
2022/03/29 09:31:22;;;;;;;30.40;14.05;;;;;;;;;;6314909;22;20165;-86
2022/03/29 09:34:28;;;;;;;31.05;14.38;;;;;;;;;;6297737;22;20208;-87
2022/03/29 09:37:37;;;;;;;31.88;14.90;;;;;;;;;;6300389;22;20594;-86
2022/03/29 09:40:43;;;;;;;33.95;14.27;;;;;;;;;;6299352;22;20168;-86
2022/03/29 09:44:19;;;;;;;30.35;13.75;;;;;;;;;;6316868;22;20279;-86
2022/03/29 09:47:24;;;;;;;34.03;13.90;;;;;;;;;;6301579;22;20531;-87
2022/03/29 09:50:29;;;;;;;32.65;13.82;;;;;;;;;;6301424;22;20169;-86
2022/03/29 09:53:34;;;;;;;28.48;14.10;;;;;;;;;;6300347;22;20161;-86
2022/03/29 09:56:41;;;;;;;32.40;14.80;;;;;;;;;;6299417;22;20616;-87
2022/03/29 09:59:50;;;;;;;33.15;14.15;;;;;;;;;;6300321;22;20160;-86
2022/03/29 10:02:55;;;;;;;30.23;14.02;;;;;;;;;;6322572;22;20165;-87
2022/03/29 10:06:03;;;;;;;28.45;13.43;;;;;;;;;;6302298;22;20165;-87
2022/03/29 10:09:27;;;;;;;32.63;14.00;;;;;;;;;;6321340;22;20169;-85
2022/03/29 10:12:33;;;;;;;66.57;19.50;;;;;;;;;;6323273;22;20196;-87
2022/03/29 10:15:41;;;;;;;31.10;13.82;;;;;;;;;;6309462;22;20197;-87
2022/03/29 15:15:06;;;;;;;22.83;10.27;;;;;;;;;;6246253;22;20193;-84
2022/03/29 15:18:12;;;;;;;31.10;10.65;;;;;;;;;;6270608;22;20166;-86
2022/03/29 15:21:21;;;;;;;27.33;10.23;;;;;;;;;;6271187;22;20212;-86
2022/03/29 15:24:27;;;;;;;22.73;9.00;;;;;;;;;;6270652;22;20154;-85
2022/03/29 15:27:33;;;;;;;38.50;10.15;;;;;;;;;;6271026;22;20664;-85
2022/03/29 15:30:39;;;;;;;22.10;8.60;;;;;;;;;;6270577;22;20172;-86
2022/03/29 15:33:45;;;;;;;17.13;8.15;;;;;;;;;;6290699;22;20165;-84
2022/03/29 15:36:54;;;;;;;17.70;7.93;;;;;;;;;;6292046;22;20238;-85
2022/03/29 15:40:07;;;;;;;15.68;7.53;;;;;;;;;;6295915;22;20170;-86
2022/03/29 15:43:14;;;;;;;21.25;7.68;;;;;;;;;;6271577;22;20178;-85
2022/03/29 15:46:20;;;;;;;19.27;7.25;;;;;;;;;;6295878;22;20250;-86
2022/03/29 15:49:26;;;;;;;19.77;6.95;;;;;;;;;;6291283;22;20238;-85
2022/03/29 15:52:35;;;;;;;16.08;6.38;;;;;;;;;;6272790;22;20149;-86
2022/03/29 15:55:46;;;;;;;26.55;7.55;;;;;;;;;;6290257;22;20169;-87
2022/03/29 15:58:51;;;;;;;21.88;7.97;;;;;;;;;;6271038;22;20154;-85
2022/03/29 16:01:59;;;;;;;22.25;6.35;;;;;;;;;;6270262;22;20502;-85
2022/03/29 16:05:05;;;;;;;16.48;6.90;;;;;;;;;;6287911;22;20264;-86
2022/03/29 16:08:10;;;;;;;20.40;6.72;;;;;;;;;;6290486;22;20162;-86
2022/03/29 16:11:15;;;;;;;17.17;5.93;;;;;;;;;;6271579;22;20165;-85
2022/03/29 16:14:21;;;;;;;16.08;7.05;;;;;;;;;;6270737;22;20262;-86
2022/03/29 16:17:36;;;;;;;25.73;7.78;;;;;;;;;;6268452;22;20205;-84
2022/03/29 16:20:43;;;;;;;18.33;7.70;;;;;;;;;;6286985;22;20209;-84
2022/03/29 16:23:48;;;;;;;18.10;7.82;;;;;;;;;;6287824;22;20240;-85
2022/03/29 16:26:53;;;;;;;24.20;8.05;;;;;;;;;;6265723;22;20193;-84
2022/03/29 16:29:59;;;;;;;21.13;8.52;;;;;;;;;;6284997;22;20252;-86
2022/03/29 16:33:06;;;;;;;37.67;9.40;;;;;;;;;;6284066;22;20166;-86
2022/03/29 16:36:11;;;;;;;21.17;8.90;;;;;;;;;;6283832;22;20177;-84
2022/03/29 16:39:16;;;;;;;22.10;9.27;;;;;;;;;;6265677;22;20178;-86
2022/03/29 16:42:22;;;;;;;24.42;10.02;;;;;;;;;;6286193;22;20173;-87
2022/03/29 16:45:27;;;;;;;19.17;8.80;;;;;;;;;;6265979;22;20248;-87
2022/03/29 16:48:33;;;;;;;19.92;9.80;;;;;;;;;;6284018;22;20687;-86
2022/03/29 16:51:38;;;;;;;28.27;10.65;;;;;;;;;;6267510;22;20174;-87
2022/03/29 16:54:43;;;;;;;24.98;9.93;;;;;;;;;;6267768;22;20212;-86
2022/03/29 16:57:48;;;;;;;23.38;9.77;;;;;;;;;;6266765;22;20181;-85
2022/03/29 17:00:55;;;;;;;27.10;10.38;;;;;;;;;;6265763;22;20166;-86
2022/03/29 17:04:02;;;;;;;24.83;10.07;;;;;;;;;;6267101;22;20713;-86
2022/03/29 17:07:07;;;;;;;28.23;11.18;;;;;;;;;;6283836;22;20232;-87
2022/03/29 17:10:12;;;;;;;24.95;10.35;;;;;;;;;;6265707;22;20176;-88
2022/03/29 17:13:18;;;;;;;23.60;10.82;;;;;;;;;;6266411;22;20169;-86
2022/03/29 17:16:25;;;;;;;20.52;10.60;;;;;;;;;;6263980;22;20652;-85
2022/03/29 17:19:32;;;;;;;24.90;11.02;;;;;;;;;;6264957;22;20229;-86
2022/03/29 17:22:37;;;;;;;23.77;10.05;;;;;;;;;;6262561;22;20166;-88
2022/03/29 17:25:42;;;;;;;28.73;11.43;;;;;;;;;;6264636;22;20189;-85
2022/03/29 17:28:47;;;;;;;24.30;10.50;;;;;;;;;;6265539;22;20166;-85
2022/03/29 17:31:52;;;;;;;21.23;9.52;;;;;;;;;;6265132;22;20176;-84
2022/03/29 17:34:59;;;;;;;29.17;11.32;;;;;;;;;;6262868;22;20212;-84
2022/03/29 17:38:05;;;;;;;26.95;10.23;;;;;;;;;;6263283;22;20177;-85
2022/03/29 17:41:10;;;;;;;25.30;10.60;;;;;;;;;;6262943;22;20178;-85
2022/03/29 17:44:15;;;;;;;22.55;9.27;;;;;;;;;;6264397;22;20673;-86
2022/03/29 17:47:21;;;;;;;22.48;9.38;;;;;;;;;;6262965;22;20197;-86
2022/03/29 17:50:28;;;;;;;21.23;9.88;;;;;;;;;;6263268;22;20182;-85
2022/03/29 17:53:33;;;;;;;24.08;10.18;;;;;;;;;;6280718;22;20188;-86
2022/03/29 17:56:40;;;;;;;27.73;10.65;;;;;;;;;;6263818;22;20166;-87
2022/03/29 18:00:18;;;;;;;29.25;9.85;;;;;;;;;;6262423;22;20169;-87
2022/03/29 18:03:24;;;;;;;27.80;10.85;;;;;;;;;;6282707;22;20589;-88
2022/03/29 18:06:31;;;;;;;28.40;11.85;;;;;;;;;;6263699;22;20190;-87
2022/03/29 18:09:36;;;;;;;32.45;11.52;;;;;;;;;;6262645;22;20189;-86
2022/03/29 18:12:40;;;;;;;28.13;11.30;;;;;;;;;;6263588;22;20593;-86
2022/03/29 18:15:46;;;;;;;26.83;11.75;;;;;;;;;;6278720;22;20668;-85
2022/03/29 18:18:51;;;;;;;34.30;12.95;;;;;;;;;;6261072;22;20636;-87
2022/03/29 18:21:57;;;;;;;26.45;11.98;;;;;;;;;;6262877;22;20179;-86
2022/03/29 18:25:03;;;;;;;29.25;12.15;;;;;;;;;;6260428;22;20169;-86
2022/03/29 18:28:08;;;;;;;26.08;11.15;;;;;;;;;;6262244;22;20746;-85
2022/03/29 18:31:13;;;;;;;25.27;11.57;;;;;;;;;;6263092;22;20629;-85
2022/03/29 18:34:22;;;;;;;31.10;11.20;;;;;;;;;;6280169;22;20509;-85
2022/03/29 18:37:30;;;;;;;25.88;12.13;;;;;;;;;;6263602;22;20246;-85
2022/03/29 18:40:35;;;;;;;28.50;12.43;;;;;;;;;;6262598;22;20169;-85
2022/03/29 18:43:40;;;;;;;27.73;11.93;;;;;;;;;;6262863;22;20174;-86
2022/03/29 18:46:45;;;;;;;32.92;12.93;;;;;;;;;;6263405;22;20193;-86
2022/03/29 18:49:50;;;;;;;26.58;12.63;;;;;;;;;;6263539;22;20312;-85
2022/03/29 18:52:57;;;;;;;22.10;10.88;;;;;;;;;;6264071;22;20248;-86
2022/03/29 18:56:03;;;;;;;25.73;11.95;;;;;;;;;;6262762;22;20634;-86
2022/03/29 18:59:08;;;;;;;32.67;14.25;;;;;;;;;;6264959;22;20197;-84
2022/03/29 19:02:14;;;;;;;32.03;14.40;;;;;;;;;;6264130;22;20165;-87
2022/03/29 19:05:25;;;;;;;35.58;13.65;;;;;;;;;;6264193;22;20495;-84
2022/03/29 19:08:31;;;;;;;32.88;13.50;;;;;;;;;;6264093;22;20173;-86
2022/03/29 19:11:37;;;;;;;32.80;14.38;;;;;;;;;;6263271;22;20219;-85
2022/03/29 19:14:42;;;;;;;29.02;13.65;;;;;;;;;;6263842;22;20158;-84
2022/03/29 19:17:48;;;;;;;36.38;14.27;;;;;;;;;;6263905;22;20771;-85
2022/03/29 19:20:53;;;;;;;28.10;12.40;;;;;;;;;;6262822;22;20243;-85
2022/03/29 19:24:02;;;;;;;30.05;13.00;;;;;;;;;;6264250;22;20165;-86
2022/03/29 19:27:07;;;;;;;30.60;12.98;;;;;;;;;;6263178;22;20189;-86
2022/03/29 19:30:14;;;;;;;30.40;13.27;;;;;;;;;;6281880;22;20166;-85
2022/03/29 19:33:19;;;;;;;27.15;12.95;;;;;;;;;;6264497;22;20174;-86
2022/03/29 19:36:30;;;;;;;27.70;12.65;;;;;;;;;;6265436;22;20170;-86
2022/03/29 19:39:44;;;;;;;32.33;11.95;;;;;;;;;;6267085;22;20597;-86
2022/03/29 19:43:04;;;;;;;27.98;11.82;;;;;;;;;;6266949;22;20174;-85
2022/03/29 19:46:45;;;;;;;27.02;12.30;;;;;;;;;;6281161;22;20707;-85
2022/03/29 19:50:14;;;;;;;31.25;12.45;;;;;;;;;;6285270;22;20169;-86
2022/03/29 19:53:18;;;;;;;33.20;13.82;;;;;;;;;;6264898;22;20905;-86
2022/03/29 19:56:25;;;;;;;28.88;13.13;;;;;;;;;;6266394;22;20233;-86
2022/03/29 19:59:30;;;;;;;29.40;12.13;;;;;;;;;;6268108;22;20214;-86
2022/03/29 20:02:35;;;;;;;30.75;13.73;;;;;;;;;;6266474;22;20170;-86
2022/03/29 20:05:40;;;;;;;27.67;13.23;;;;;;;;;;6286622;22;20243;-86
2022/03/29 20:08:45;;;;;;;31.08;14.73;;;;;;;;;;6266336;22;20169;-87
2022/03/29 20:11:52;;;;;;;32.35;16.80;;;;;;;;;;6266947;22;20240;-86
2022/03/29 20:14:58;;;;;;;32.58;15.98;;;;;;;;;;6265067;22;20296;-85
2022/03/29 20:18:04;;;;;;;31.63;15.90;;;;;;;;;;6265324;22;20208;-85
2022/03/29 20:21:09;;;;;;;27.17;13.15;;;;;;;;;;6265539;22;20490;-86
2022/03/29 20:24:14;;;;;;;27.35;12.60;;;;;;;;;;6265941;22;20481;-87
2022/03/29 20:27:22;;;;;;;25.73;12.15;;;;;;;;;;6266352;22;20247;-86
2022/03/29 20:30:27;;;;;;;26.02;12.43;;;;;;;;;;6263472;22;20188;-85
2022/03/29 20:33:32;;;;;;;26.02;12.57;;;;;;;;;;6264224;22;20267;-86
2022/03/29 20:36:38;;;;;;;31.75;14.00;;;;;;;;;;6265375;22;20162;-87
2022/03/29 20:39:43;;;;;;;32.67;13.75;;;;;;;;;;6264259;22;20226;-85
2022/03/29 20:42:55;;;;;;;30.08;13.77;;;;;;;;;;6263120;22;20307;-86
2022/03/29 20:46:02;;;;;;;32.67;15.80;;;;;;;;;;6262996;22;20165;-86
2022/03/29 20:49:07;;;;;;;37.53;17.02;;;;;;;;;;6264986;22;20178;-85
2022/03/29 20:52:12;;;;;;;32.03;15.18;;;;;;;;;;6285021;22;20170;-88
2022/03/29 20:55:18;;;;;;;31.77;14.18;;;;;;;;;;6265162;22;20177;-85
2022/03/29 20:58:24;;;;;;;29.85;12.23;;;;;;;;;;6265928;22;20169;-88
2022/03/29 21:01:30;;;;;;;25.00;11.88;;;;;;;;;;6270105;22;20177;-86
2022/03/29 21:04:35;;;;;;;25.52;12.25;;;;;;;;;;6269950;22;20166;-86
2022/03/29 21:07:40;;;;;;;22.40;11.38;;;;;;;;;;6271226;22;20190;-85
2022/03/29 21:10:47;;;;;;;23.88;12.05;;;;;;;;;;6269608;22;20190;-87
2022/03/29 21:13:54;;;;;;;29.90;12.65;;;;;;;;;;6290022;22;20169;-87
2022/03/29 21:17:02;;;;;;;24.05;11.85;;;;;;;;;;6265698;22;20316;-87
2022/03/29 21:20:07;;;;;;;27.42;12.35;;;;;;;;;;6266792;22;20197;-84
2022/03/29 21:23:16;;;;;;;29.05;12.43;;;;;;;;;;6267613;22;20174;-86
2022/03/29 21:26:36;;;;;;;30.52;13.30;;;;;;;;;;6267098;22;20254;-85
2022/03/29 21:29:43;;;;;;;26.65;11.15;;;;;;;;;;6267553;22;20245;-87
2022/03/29 21:32:48;;;;;;;32.75;13.20;;;;;;;;;;6268351;22;20573;-88
2022/03/29 21:35:53;;;;;;;27.73;11.48;;;;;;;;;;6267436;22;20174;-86
2022/03/29 21:38:58;;;;;;;29.02;11.98;;;;;;;;;;6286387;22;20166;-85
2022/03/29 21:42:03;;;;;;;71.25;26.63;;;;;;;;;;6266637;22;20537;-86
2022/03/29 21:45:11;;;;;;;28.73;12.35;;;;;;;;;;6265584;22;20165;-86
2022/03/29 21:48:16;;;;;;;27.73;12.45;;;;;;;;;;6266877;22;20189;-88
2022/03/29 21:51:21;;;;;;;28.08;11.52;;;;;;;;;;6283234;22;20174;-85
2022/03/29 21:54:45;;;;;;;25.58;12.35;;;;;;;;;;6284197;22;20539;-84
2022/03/29 21:58:09;;;;;;;33.05;14.07;;;;;;;;;;6283615;22;20173;-86
2022/03/29 22:01:37;;;;;;;22.88;11.85;;;;;;;;;;6283347;22;20169;-86
2022/03/29 22:05:01;;;;;;;24.52;11.70;;;;;;;;;;6285419;22;20205;-86
2022/03/29 22:08:06;;;;;;;27.05;13.13;;;;;;;;;;6285183;22;20193;-86
2022/03/29 22:11:11;;;;;;;22.90;11.80;;;;;;;;;;6264387;22;20169;-86
2022/03/29 22:14:16;;;;;;;29.83;12.13;;;;;;;;;;6267885;22;20174;-87
2022/03/29 22:17:36;;;;;;;25.77;11.82;;;;;;;;;;6268347;22;20162;-87
2022/03/29 22:20:42;;;;;;;24.40;11.60;;;;;;;;;;6268681;22;20285;-87
2022/03/29 22:23:50;;;;;;;26.63;12.65;;;;;;;;;;6271034;22;20176;-87
2022/03/29 22:26:55;;;;;;;25.88;12.75;;;;;;;;;;6269098;22;20188;-86
2022/03/29 22:30:00;;;;;;;30.77;12.60;;;;;;;;;;6270886;22;20174;-86
2022/03/29 22:33:06;;;;;;;25.67;11.65;;;;;;;;;;6271065;22;20242;-87
2022/03/29 22:36:11;;;;;;;24.15;12.75;;;;;;;;;;6271188;22;20236;-86
2022/03/29 22:39:17;;;;;;;24.10;11.75;;;;;;;;;;6270132;22;20343;-86
2022/03/29 22:42:23;;;;;;;23.52;11.50;;;;;;;;;;6268954;22;20236;-86
2022/03/29 22:45:29;;;;;;;25.48;11.23;;;;;;;;;;6269162;22;20180;-86
2022/03/29 22:48:38;;;;;;;21.88;11.07;;;;;;;;;;6270857;22;20189;-86
2022/03/29 22:51:43;;;;;;;25.55;11.15;;;;;;;;;;6269422;22;20239;-86
2022/03/29 22:54:47;;;;;;;24.27;12.20;;;;;;;;;;6267675;22;20165;-84
2022/03/29 22:57:55;;;;;;;29.25;11.98;;;;;;;;;;6285124;22;20230;-86
2022/03/29 23:01:00;;;;;;;24.15;11.88;;;;;;;;;;6268697;22;20157;-86
2022/03/29 23:04:06;;;;;;;24.27;11.57;;;;;;;;;;6268404;22;20166;-87
2022/03/29 23:07:11;;;;;;;28.83;11.52;;;;;;;;;;6267697;22;20217;-87